Time;durP1;ratioP1;P1;durP2;ratioP2;P2;SDS_P1;SDS_P2;PMS_P1;PMS_P2;Temp;Humidity;BMP_temperature;BMP_pressure;BME280_temperature;BME280_humidity;BME280_pressure;Samples;Min_cycle;Max_cycle;Signal;HPM_P1;HPM_P2
2023/04/03 00:00:39;;;;;;;;;38.00;32.75;;;;;7.55;67.31;102374.28;6277755;22;45213;-72
2023/04/03 00:03:05;;;;;;;;;28.00;25.25;;;;;7.47;67.17;102365.00;6277609;22;45258;-72
2023/04/03 00:05:30;;;;;;;;;37.00;29.50;;;;;7.51;67.51;102367.03;6277760;22;45516;-72
2023/04/03 00:07:56;;;;;;;;;36.25;32.50;;;;;7.54;67.20;102377.72;6276926;22;45608;-72
2023/04/03 00:10:21;;;;;;;;;33.25;32.50;;;;;7.53;67.41;102376.78;6277317;22;45149;-72
2023/04/03 00:12:47;;;;;;;;;40.75;35.25;;;;;7.52;67.10;102375.00;6277693;22;45207;-72
2023/04/03 00:15:12;;;;;;;;;35.00;29.25;;;;;7.56;67.11;102374.38;6277478;22;45159;-72
2023/04/03 00:17:38;;;;;;;;;42.50;33.25;;;;;7.55;67.27;102369.91;6277126;22;46232;-72
2023/04/03 00:20:04;;;;;;;;;32.00;26.75;;;;;7.50;67.53;102360.81;6277342;22;45274;-72
2023/04/03 00:22:30;;;;;;;;;38.00;33.50;;;;;7.55;67.12;102369.91;6276993;22;45283;-72
2023/04/03 00:24:55;;;;;;;;;35.50;32.00;;;;;7.51;67.32;102365.28;6277233;22;45263;-72
2023/04/03 00:27:20;;;;;;;;;43.25;33.00;;;;;7.65;67.01;102387.19;6276772;22;45267;-72
2023/04/03 00:29:46;;;;;;;;;38.00;34.00;;;;;7.67;66.71;102384.63;6277499;22;45271;-72
2023/04/03 00:32:11;;;;;;;;;37.50;34.00;;;;;7.54;67.21;102361.94;6277114;22;45365;-72
2023/04/03 00:34:36;;;;;;;;;40.00;34.25;;;;;7.55;66.83;102369.00;6277370;22;45387;-72
2023/04/03 00:37:02;;;;;;;;;37.25;32.00;;;;;7.61;67.23;102370.28;6276047;22;46189;-72
2023/04/03 00:39:27;;;;;;;;;34.50;30.75;;;;;7.54;67.06;102362.84;6276403;22;45184;-72
2023/04/03 00:41:53;;;;;;;;;33.50;30.50;;;;;7.58;66.86;102366.56;6277226;22;45239;-72
2023/04/03 00:44:38;;;;;;;;;37.25;33.50;;;;;7.67;66.86;102384.63;6275132;22;46427;-72
2023/04/03 00:47:07;;;;;;;;;39.00;36.25;;;;;7.69;67.27;102383.03;6211647;22;46707;-72
2023/04/03 00:49:33;;;;;;;;;43.00;36.00;;;;;7.63;66.89;102379.19;6275222;22;45882;-72
2023/04/03 00:51:59;;;;;;;;;38.25;28.75;;;;;7.65;67.20;102386.28;6276435;22;45215;-72
2023/04/03 00:54:26;;;;;;;;;40.00;32.50;;;;;7.67;67.04;102392.53;6276835;22;45279;-72
2023/04/03 00:56:54;;;;;;;;;41.00;34.25;;;;;7.63;67.18;102373.94;6277176;22;45201;-72
2023/04/03 00:59:25;;;;;;;;;43.00;35.25;;;;;7.67;67.04;102382.91;6275097;22;45209;-72
2023/04/03 01:01:52;;;;;;;;;31.50;27.00;;;;;7.67;67.27;102376.75;6276716;22;45204;-72
2023/04/03 01:04:27;;;;;;;;;39.75;34.25;;;;;7.67;67.54;102377.66;6277024;22;45408;-72
2023/04/03 01:06:52;;;;;;;;;39.75;34.50;;;;;7.63;66.61;102362.50;6277116;22;45187;-72
2023/04/03 01:09:17;;;;;;;;;39.25;35.50;;;;;7.60;67.34;102373.75;6276846;22;45227;-72
2023/04/03 01:11:42;;;;;;;;;39.50;34.00;;;;;7.60;67.43;102379.00;6277618;22;45231;-72
2023/04/03 01:14:08;;;;;;;;;37.50;34.25;;;;;7.48;67.44;102351.94;6276866;22;45406;-72
2023/04/03 01:16:33;;;;;;;;;40.50;33.50;;;;;7.53;66.96;102355.75;6277304;22;46094;-72
2023/04/03 01:19:00;;;;;;;;;46.25;35.00;;;;;7.56;67.21;102370.81;6276752;22;45178;-72
2023/04/03 01:21:54;;;;;;;;;36.00;30.00;;;;;7.36;67.61;102335.38;6276962;22;45160;-72
2023/04/03 01:24:38;;;;;;;;;33.50;28.25;;;;;7.47;67.66;102379.06;6276439;22;45237;-72
2023/04/03 01:27:06;;;;;;;;;42.50;31.75;;;;;7.50;67.07;102373.06;6276210;22;47032;-72
2023/04/03 01:29:32;;;;;;;;;43.50;35.25;;;;;7.42;67.29;102361.16;6276758;22;45238;-72
2023/04/03 01:31:59;;;;;;;;;32.50;31.75;;;;;7.49;67.67;102379.16;6276568;22;45417;-72
2023/04/03 01:34:26;;;;;;;;;41.75;34.75;;;;;7.48;67.58;102369.44;6276155;22;45227;-72
2023/04/03 01:36:52;;;;;;;;;29.75;28.25;;;;;7.43;67.43;102358.63;6274574;22;47345;-72
2023/04/03 01:39:18;;;;;;;;;39.00;31.00;;;;;7.42;67.26;102359.44;6276510;22;45251;-72
2023/04/03 01:41:44;;;;;;;;;35.50;30.00;;;;;7.43;67.68;102361.28;6275176;22;45229;-72
2023/04/03 01:44:10;;;;;;;;;32.25;28.00;;;;;7.42;67.47;102350.63;6276223;22;45515;-72
2023/04/03 01:46:37;;;;;;;;;38.00;33.00;;;;;7.33;67.94;102343.09;6276743;22;45144;-72
2023/04/03 01:49:03;;;;;;;;;35.50;32.00;;;;;7.37;67.67;102350.38;6276549;22;45107;-72
2023/04/03 01:51:28;;;;;;;;;37.75;33.50;;;;;7.38;67.75;102350.44;6277302;22;45334;-72
2023/04/03 01:53:53;;;;;;;;;42.00;34.25;;;;;7.32;67.81;102347.44;6275639;22;46353;-71
2023/04/03 01:56:19;;;;;;;;;30.25;29.00;;;;;7.33;67.80;102359.78;6276675;22;45247;-72
2023/04/03 01:58:45;;;;;;;;;37.50;33.00;;;;;7.29;67.99;102354.25;6277760;22;45331;-72
2023/04/03 02:01:10;;;;;;;;;29.00;26.50;;;;;7.26;67.75;102343.53;6278502;22;45406;-72
2023/04/03 02:03:36;;;;;;;;;38.50;31.75;;;;;7.32;68.24;102350.06;6278090;22;44585;-72
2023/04/03 02:06:01;;;;;;;;;37.50;31.50;;;;;7.31;68.14;102356.16;6277872;22;45224;-72
2023/04/03 02:08:27;;;;;;;;;34.75;28.75;;;;;7.27;67.92;102354.13;6277598;22;45259;-72
2023/04/03 02:10:52;;;;;;;;;40.50;36.00;;;;;7.28;67.37;102353.34;6278376;22;45412;-72
2023/04/03 02:13:18;;;;;;;;;38.50;33.50;;;;;7.19;68.25;102347.47;6277878;22;45211;-72
2023/04/03 02:15:45;;;;;;;;;33.00;32.75;;;;;7.27;68.25;102355.88;6278000;22;45234;-72
2023/04/03 02:18:10;;;;;;;;;30.25;27.75;;;;;7.23;67.76;102343.34;6277343;22;45298;-72
2023/04/03 02:20:35;;;;;;;;;37.25;32.25;;;;;7.27;67.79;102350.59;6278230;22;45145;-72
2023/04/03 02:23:02;;;;;;;;;36.75;29.00;;;;;7.26;67.94;102359.31;6276688;22;52636;-72
2023/04/03 02:25:27;;;;;;;;;33.75;24.25;;;;;7.20;68.03;102345.75;6277972;22;45438;-72
2023/04/03 02:27:53;;;;;;;;;38.50;32.25;;;;;7.26;67.96;102354.97;6275813;22;45375;-72
2023/04/03 02:30:18;;;;;;;;;31.00;26.00;;;;;7.01;68.39;102317.41;6278258;22;45270;-72
2023/04/03 02:32:44;;;;;;;;;31.50;27.50;;;;;7.27;67.68;102351.50;6277681;22;45236;-72
2023/04/03 02:35:11;;;;;;;;;30.50;24.25;;;;;7.08;67.42;102338.91;6277949;22;45745;-72
2023/04/03 02:37:37;;;;;;;;;30.00;26.50;;;;;7.20;67.36;102358.91;6277127;22;45180;-72
2023/04/03 02:40:03;;;;;;;;;23.25;22.75;;;;;7.16;67.33;102355.19;6278148;22;45137;-72
2023/04/03 02:42:28;;;;;;;;;24.25;22.50;;;;;7.12;67.56;102347.94;6277232;22;45415;-72
2023/04/03 02:44:54;;;;;;;;;26.00;25.00;;;;;7.16;67.28;102365.69;6278143;22;45952;-72
2023/04/03 02:47:19;;;;;;;;;31.00;26.50;;;;;7.13;67.75;102361.16;6277864;22;45204;-72
2023/04/03 02:49:45;;;;;;;;;28.75;24.50;;;;;7.13;67.50;102362.88;6277314;22;44566;-72
2023/04/03 02:52:11;;;;;;;;;28.75;20.50;;;;;7.09;67.46;102356.53;6277389;22;45398;-72
2023/04/03 02:54:37;;;;;;;;;21.25;21.25;;;;;7.11;67.91;102361.88;6277166;22;45247;-72
2023/04/03 02:57:02;;;;;;;;;23.00;21.50;;;;;7.07;67.12;102352.88;6277340;22;52832;-72
2023/04/03 02:59:27;;;;;;;;;25.00;19.00;;;;;7.06;67.46;102356.34;6276025;22;45211;-74
2023/04/03 03:01:53;;;;;;;;;27.50;20.50;;;;;7.07;66.96;102351.97;6276050;22;46236;-72
2023/04/03 03:04:18;;;;;;;;;23.25;21.00;;;;;7.03;66.83;102356.16;6277581;22;45410;-72
2023/04/03 03:06:44;;;;;;;;;24.75;19.50;;;;;6.99;66.93;102343.59;6277850;22;45215;-72
2023/04/03 03:09:09;;;;;;;;;24.75;19.00;;;;;6.95;66.43;102338.97;6277445;22;45204;-72
2023/04/03 03:11:35;;;;;;;;;22.25;20.25;;;;;6.99;66.77;102348.84;6277746;22;45254;-72
2023/04/03 03:14:00;;;;;;;;;24.25;16.50;;;;;6.93;66.56;102340.59;6277390;22;45287;-72
2023/04/03 03:16:25;;;;;;;;;22.75;19.75;;;;;6.99;66.59;102345.31;6277801;22;45251;-71
2023/04/03 03:18:51;;;;;;;;;26.50;19.00;;;;;6.88;66.09;102336.75;6277616;22;45195;-72
2023/04/03 03:21:16;;;;;;;;;16.50;15.50;;;;;6.83;66.15;102333.81;6277376;22;50922;-71
2023/04/03 03:23:41;;;;;;;;;23.50;18.50;;;;;6.96;65.81;102351.28;6276630;22;45189;-71
2023/04/03 03:26:09;;;;;;;;;21.75;20.25;;;;;6.94;66.41;102348.56;6277436;22;45821;-72
2023/04/03 03:28:36;;;;;;;;;19.75;16.25;;;;;6.96;65.83;102353.91;6277747;22;45161;-71
2023/04/03 03:31:02;;;;;;;;;18.75;15.25;;;;;6.83;65.81;102328.56;6275794;22;45796;-71
2023/04/03 03:33:27;;;;;;;;;14.00;14.00;;;;;6.86;66.38;102330.47;6276889;22;45198;-71
2023/04/03 03:35:54;;;;;;;;;21.75;19.00;;;;;6.91;65.74;102339.56;6277685;22;45175;-71
2023/04/03 03:38:19;;;;;;;;;18.50;18.50;;;;;6.86;66.11;102338.38;6277064;22;45278;-71
2023/04/03 03:40:47;;;;;;;;;20.00;20.00;;;;;6.82;65.71;102344.25;6277907;22;45217;-72
2023/04/03 03:43:12;;;;;;;;;13.25;11.00;;;;;6.87;65.95;102349.00;6276951;22;46918;-71
2023/04/03 03:45:38;;;;;;;;;21.75;20.50;;;;;6.86;65.27;102360.31;6277788;22;45243;-72
2023/04/03 03:48:03;;;;;;;;;17.75;16.50;;;;;6.87;65.63;102351.63;6277571;22;44665;-71
2023/04/03 03:50:28;;;;;;;;;24.75;19.00;;;;;6.81;65.83;102343.34;6277590;22;45170;-71
2023/04/03 03:52:54;;;;;;;;;19.75;17.75;;;;;6.81;65.35;102337.19;6276357;22;58007;-72
2023/04/03 03:55:19;;;;;;;;;23.25;19.75;;;;;6.88;65.86;102336.75;6277190;22;45595;-71
2023/04/03 03:57:44;;;;;;;;;13.50;11.75;;;;;6.83;64.77;102331.19;6277494;22;45090;-71
2023/04/03 04:00:10;;;;;;;;;17.00;16.00;;;;;6.85;64.99;102331.31;6275274;22;46055;-71
2023/04/03 04:02:35;;;;;;;;;22.00;21.75;;;;;6.88;65.50;102334.13;6277429;22;45100;-72
2023/04/03 04:05:01;;;;;;;;;23.25;21.25;;;;;6.89;64.84;102335.94;6277092;22;54611;-71
2023/04/03 04:07:28;;;;;;;;;19.50;18.00;;;;;6.93;65.36;102340.59;6277361;22;45200;-72
2023/04/03 04:09:53;;;;;;;;;30.25;20.75;;;;;6.90;65.17;102340.41;6301511;22;45305;-71
2023/04/03 04:12:20;;;;;;;;;25.00;20.00;;;;;6.93;64.78;102345.84;6277024;22;45279;-71
2023/04/03 04:14:46;;;;;;;;;22.25;20.75;;;;;6.94;64.32;102351.19;6276796;22;45385;-71
2023/04/03 04:17:12;;;;;;;;;24.00;18.25;;;;;6.93;64.53;102348.47;6277322;22;45255;-71
2023/04/03 04:19:37;;;;;;;;;26.50;16.00;;;;;6.82;64.25;102339.91;6277239;22;44741;-72
2023/04/03 04:22:03;;;;;;;;;22.25;19.75;;;;;6.90;64.13;102348.28;6276856;22;45276;-71
2023/04/03 04:24:28;;;;;;;;;21.25;17.75;;;;;6.90;65.36;102348.28;6276678;22;45378;-71
2023/04/03 04:26:53;;;;;;;;;20.50;18.75;;;;;6.80;64.64;102319.56;6277393;22;45445;-71
2023/04/03 04:29:19;;;;;;;;;12.75;12.00;;;;;6.87;64.98;102340.19;6276974;22;45358;-71
2023/04/03 04:31:44;;;;;;;;;23.50;19.25;;;;;6.79;64.42;102339.69;6277444;22;45347;-71
2023/04/03 04:34:09;;;;;;;;;20.50;17.75;;;;;6.80;63.89;102337.97;6277314;22;45181;-71
2023/04/03 04:36:35;;;;;;;;;22.75;19.25;;;;;6.75;63.71;102339.38;6276925;22;45635;-71
2023/04/03 04:39:00;;;;;;;;;19.00;18.50;;;;;6.79;64.35;102347.59;6276512;22;46230;-71
2023/04/03 04:41:26;;;;;;;;;21.75;20.00;;;;;6.67;64.15;102331.03;6276993;22;46215;-71
2023/04/03 04:43:52;;;;;;;;;23.25;17.75;;;;;6.71;64.00;102335.66;6275068;22;45264;-71
2023/04/03 04:46:18;;;;;;;;;16.75;15.25;;;;;6.73;64.14;102334.06;6277724;22;45276;-71
2023/04/03 04:48:43;;;;;;;;;13.50;12.25;;;;;6.73;64.33;102339.31;6277226;22;45363;-71
2023/04/03 04:51:09;;;;;;;;;22.00;19.00;;;;;6.69;63.46;102343.47;6277150;22;45239;-71
2023/04/03 04:53:34;;;;;;;;;25.25;19.50;;;;;6.71;63.91;102349.72;6276593;22;45260;-71
2023/04/03 04:56:00;;;;;;;;;19.25;17.75;;;;;6.69;63.97;102346.09;6277356;22;45264;-72
2023/04/03 04:58:25;;;;;;;;;24.75;21.50;;;;;6.61;63.71;102333.25;6300373;22;45786;-72
2023/04/03 05:01:02;;;;;;;;;19.25;17.00;;;;;6.66;63.37;102350.22;6277189;22;45373;-71
2023/04/03 05:03:27;;;;;;;;;25.50;22.50;;;;;6.60;62.20;102350.72;6276933;22;45299;-71
2023/04/03 05:05:53;;;;;;;;;22.00;19.50;;;;;6.61;63.37;102355.19;6275584;22;45287;-72
2023/04/03 05:08:18;;;;;;;;;19.50;18.25;;;;;6.48;63.67;102327.19;6276927;22;45133;-71
2023/04/03 05:10:45;;;;;;;;;22.00;18.00;;;;;6.60;63.59;102349.81;6277691;22;45192;-72
2023/04/03 05:13:11;;;;;;;;;25.75;21.75;;;;;6.58;61.99;102348.81;6277043;22;45219;-72
2023/04/03 05:15:36;;;;;;;;;25.50;22.25;;;;;6.48;63.16;102340.34;6277531;22;45328;-72
2023/04/03 05:18:01;;;;;;;;;23.50;21.75;;;;;6.41;62.57;102327.63;6277252;22;44751;-72
2023/04/03 05:20:27;;;;;;;;;16.75;15.00;;;;;6.53;63.10;102351.16;6277194;22;45191;-71
2023/04/03 05:22:52;;;;;;;;;19.25;18.50;;;;;6.43;62.30;102332.97;6276454;22;45227;-72
2023/04/03 05:25:17;;;;;;;;;22.00;18.00;;;;;6.42;61.52;102336.41;6274358;22;52849;-71
2023/04/03 05:27:43;;;;;;;;;23.25;23.25;;;;;6.49;63.09;102357.91;6277014;22;50783;-72
2023/04/03 05:30:08;;;;;;;;;24.25;23.25;;;;;6.48;62.72;102349.94;6277157;22;45158;-72
2023/04/03 05:32:33;;;;;;;;;21.75;17.75;;;;;6.44;62.05;102350.53;6276113;22;45401;-72
2023/04/03 05:34:59;;;;;;;;;22.75;22.25;;;;;6.44;61.23;102350.53;6277518;22;45231;-72
2023/04/03 05:37:24;;;;;;;;;27.75;21.00;;;;;6.45;60.90;102353.28;6276571;22;45300;-72
2023/04/03 05:39:50;;;;;;;;;29.00;22.25;;;;;6.47;61.90;102353.38;6277138;22;48059;-72
2023/04/03 05:42:17;;;;;;;;;26.50;24.00;;;;;6.49;61.23;102359.63;6276937;22;45270;-72
2023/04/03 05:44:42;;;;;;;;;29.75;25.00;;;;;6.45;60.10;102366.41;6275062;22;45296;-72
2023/04/03 05:47:08;;;;;;;;;29.50;20.75;;;;;6.37;62.12;102358.81;6276714;22;45254;-70
2023/04/03 05:49:33;;;;;;;;;19.50;19.25;;;;;6.42;61.60;102374.09;6277342;22;45279;-73
2023/04/03 05:51:58;;;;;;;;;25.25;22.75;;;;;6.43;60.90;102365.38;6274456;22;45205;-73
2023/04/03 05:54:26;;;;;;;;;25.00;19.75;;;;;6.45;61.74;102370.75;6275401;22;45370;-72
2023/04/03 05:56:52;;;;;;;;;22.50;22.00;;;;;6.46;62.04;102373.47;6276802;22;45141;-71
2023/04/03 05:59:19;;;;;;;;;43.50;36.25;;;;;6.47;61.46;102374.41;6276510;22;45105;-72
2023/04/03 06:01:45;;;;;;;;;25.00;18.50;;;;;6.48;61.47;102374.47;6276910;22;45318;-72
2023/04/03 06:04:12;;;;;;;;;23.50;23.50;;;;;6.50;61.51;102374.59;6276849;22;44644;-72
2023/04/03 06:07:07;;;;;;;;;24.00;22.50;;;;;6.48;61.17;102376.22;6276596;22;44728;-71
2023/04/03 06:09:33;;;;;;;;;37.25;29.00;;;;;6.46;60.10;102376.09;6248377;22;46994;-69
2023/04/03 06:11:58;;;;;;;;;27.75;26.00;;;;;6.48;60.54;102379.75;6276522;22;45172;-71
2023/04/03 06:14:25;;;;;;;;;39.50;34.00;;;;;6.52;59.75;102379.94;6276678;22;45661;-71
2023/04/03 06:16:51;;;;;;;;;25.25;23.00;;;;;6.54;60.43;102379.22;6276407;22;46292;-71
2023/04/03 06:19:16;;;;;;;;;25.75;21.75;;;;;6.54;60.55;102378.34;6276101;22;45201;-71
2023/04/03 06:21:42;;;;;;;;;28.25;23.50;;;;;6.59;59.77;102376.91;6276660;22;45213;-71
2023/04/03 06:24:08;;;;;;;;;23.25;23.00;;;;;6.60;58.99;102377.00;6276097;22;45421;-71
2023/04/03 06:26:34;;;;;;;;;29.75;26.75;;;;;6.43;60.19;102354.88;6276883;22;45231;-71
2023/04/03 06:28:59;;;;;;;;;26.00;22.25;;;;;6.63;60.50;102385.09;6276264;22;45290;-70
2023/04/03 06:31:25;;;;;;;;;28.25;21.50;;;;;6.65;59.60;102388.72;6276629;22;45219;-70
2023/04/03 06:33:50;;;;;;;;;33.50;25.25;;;;;6.49;59.88;102354.38;6276298;22;45160;-71
2023/04/03 06:36:20;;;;;;;;;26.00;23.00;;;;;6.67;58.98;102387.13;6300181;22;45555;-70
2023/04/03 06:38:46;;;;;;;;;24.75;23.25;;;;;6.68;59.71;102388.94;6275244;22;47372;-70
2023/04/03 06:41:11;;;;;;;;;28.75;26.25;;;;;6.66;59.48;102374.78;6273873;22;45196;-70
2023/04/03 06:43:36;;;;;;;;;28.50;24.00;;;;;6.70;59.97;102376.81;6274336;22;45094;-69
2023/04/03 06:46:02;;;;;;;;;25.25;21.00;;;;;6.79;60.03;102387.00;6277345;22;49342;-69
2023/04/03 06:48:29;;;;;;;;;27.25;24.75;;;;;6.77;58.24;102383.34;6277540;22;46141;-69
2023/04/03 06:50:54;;;;;;;;;29.50;25.25;;;;;6.72;59.12;102367.31;6277328;22;45256;-69
2023/04/03 06:53:20;;;;;;;;;38.50;25.75;;;;;6.81;59.09;102372.25;6276741;22;45349;-69
2023/04/03 06:55:46;;;;;;;;;27.25;26.00;;;;;6.91;59.91;102389.50;6277626;22;45409;-70
2023/04/03 06:58:12;;;;;;;;;30.00;27.75;;;;;6.91;58.95;102377.28;6277543;22;45311;-70
2023/04/03 07:00:37;;;;;;;;;23.50;21.00;;;;;6.95;59.11;102373.16;6277669;22;45203;-70
2023/04/03 07:03:02;;;;;;;;;29.25;24.25;;;;;7.07;59.35;102384.44;6277817;22;45252;-69
2023/04/03 07:05:28;;;;;;;;;29.00;26.25;;;;;7.09;56.96;102384.53;6277805;22;45271;-70
2023/04/03 07:07:53;;;;;;;;;27.25;22.25;;;;;7.16;58.41;102382.38;6276936;22;47695;-69
2023/04/03 07:10:18;;;;;;;;;27.00;23.25;;;;;7.22;59.28;102378.31;6277779;22;45214;-69
2023/04/03 07:12:44;;;;;;;;;21.00;20.00;;;;;7.24;58.21;102371.44;6274038;22;45264;-70
2023/04/03 07:15:12;;;;;;;;;24.00;21.25;;;;;7.27;57.58;102363.75;6276420;22;45046;-70
2023/04/03 07:17:38;;;;;;;;;27.00;22.75;;;;;7.43;58.33;102378.78;6276183;22;45396;-70
2023/04/03 07:20:04;;;;;;;;;27.25;24.25;;;;;7.51;58.38;102381.06;6277517;22;45249;-71
2023/04/03 07:22:29;;;;;;;;;30.75;25.25;;;;;7.51;58.09;102362.66;6276787;22;45260;-70
2023/04/03 07:24:55;;;;;;;;;28.00;21.75;;;;;7.69;58.08;102373.41;6276428;22;45249;-71
2023/04/03 07:27:20;;;;;;;;;28.00;25.00;;;;;7.76;57.11;102367.69;6276786;22;45271;-71
2023/04/03 07:29:47;;;;;;;;;26.75;22.25;;;;;7.92;57.25;102374.78;6277050;22;45148;-71
2023/04/03 07:32:13;;;;;;;;;22.75;20.25;;;;;8.07;57.21;102383.63;6277453;22;45239;-71
2023/04/03 07:34:39;;;;;;;;;27.50;24.00;;;;;8.13;57.94;102369.91;6277146;22;45315;-71
2023/04/03 07:37:04;;;;;;;;;25.75;24.25;;;;;8.21;57.79;102373.91;6276205;22;45196;-71
2023/04/03 07:39:30;;;;;;;;;29.50;22.50;;;;;8.19;57.28;102364.09;6276936;22;45116;-72
2023/04/03 07:41:56;;;;;;;;;20.25;19.50;;;;;8.34;57.27;102387.78;6277391;22;45315;-70
2023/04/03 07:44:21;;;;;;;;;21.50;20.00;;;;;8.28;57.38;102376.06;6300187;22;46476;-69
2023/04/03 07:46:48;;;;;;;;;18.75;15.25;;;;;8.25;57.40;102375.88;6274924;22;45249;-68
2023/04/03 07:49:14;;;;;;;;;26.25;18.50;;;;;8.24;56.63;102373.19;6276722;22;45295;-70
2023/04/03 07:51:39;;;;;;;;;23.25;20.25;;;;;8.25;56.86;102380.25;6276910;22;45208;-70
2023/04/03 07:54:05;;;;;;;;;28.50;23.00;;;;;8.29;56.68;102387.53;6276433;22;45266;-70
2023/04/03 07:56:31;;;;;;;;;23.50;20.50;;;;;8.30;56.33;102378.81;6276383;22;45620;-70
2023/04/03 07:58:56;;;;;;;;;25.00;19.50;;;;;8.36;55.28;102381.78;6275645;22;44759;-71
2023/04/03 08:01:22;;;;;;;;;19.50;19.50;;;;;8.51;55.85;102397.63;6271558;22;45386;-70
2023/04/03 08:03:47;;;;;;;;;24.75;23.00;;;;;8.63;55.75;102390.44;6273811;22;45561;-71
2023/04/03 08:06:14;;;;;;;;;23.00;15.75;;;;;8.72;56.46;102392.69;6271944;22;52336;-70
2023/04/03 08:08:40;;;;;;;;;16.75;16.25;;;;;8.82;55.90;102394.13;6274027;22;45273;-70
2023/04/03 08:11:06;;;;;;;;;25.50;22.00;;;;;8.87;56.78;102392.66;6274449;22;45279;-71
2023/04/03 08:13:31;;;;;;;;;19.50;17.50;;;;;8.96;55.31;102395.81;6273630;22;45569;-70
2023/04/03 08:15:58;;;;;;;;;23.25;17.25;;;;;8.93;54.76;102380.75;6274674;22;46547;-70
2023/04/03 08:18:25;;;;;;;;;21.75;21.75;;;;;9.11;54.73;102395.78;6274481;22;45314;-71
2023/04/03 08:20:51;;;;;;;;;19.50;17.75;;;;;9.17;55.95;102393.47;6272346;22;45321;-71
2023/04/03 08:23:18;;;;;;;;;18.25;17.00;;;;;9.28;55.37;102397.63;6273660;22;45385;-70
2023/04/03 08:25:44;;;;;;;;;19.00;16.75;;;;;9.35;55.91;102390.94;6274422;22;45287;-70
2023/04/03 08:28:11;;;;;;;;;19.75;15.75;;;;;9.37;54.90;102384.91;6274306;22;45462;-70
2023/04/03 08:30:39;;;;;;;;;16.00;13.75;;;;;9.38;54.90;102373.56;6274250;22;45581;-71
2023/04/03 08:33:04;;;;;;;;;21.00;16.25;;;;;9.50;54.61;102380.31;6274148;22;45395;-70
2023/04/03 08:35:30;;;;;;;;;10.25;10.25;;;;;9.56;54.96;102388.56;6274388;22;45307;-70
2023/04/03 08:37:56;;;;;;;;;18.00;17.50;;;;;9.56;54.06;102389.47;6270656;22;45575;-70
2023/04/03 08:40:22;;;;;;;;;16.75;13.50;;;;;9.57;54.44;102385.09;6274494;22;45578;-71
2023/04/03 08:42:53;;;;;;;;;13.75;10.75;;;;;9.59;52.86;102387.00;6274283;22;45677;-70
2023/04/03 08:45:34;;;;;;;;;15.75;12.00;;;;;9.66;53.73;102390.84;6274654;22;45550;-71
2023/04/03 08:48:07;;;;;;;;;10.50;8.50;;;;;9.69;53.80;102392.75;6273351;22;45307;-70
2023/04/03 08:50:41;;;;;;;;;9.00;9.00;;;;;9.67;53.37;102395.34;6274521;22;45326;-71
2023/04/03 08:53:15;;;;;;;;;9.75;9.75;;;;;9.68;52.66;102386.56;6273635;22;45525;-71
2023/04/03 08:55:45;;;;;;;;;7.50;7.50;;;;;9.73;52.35;102379.81;6273232;22;45438;-70
2023/04/03 08:58:20;;;;;;;;;11.00;9.00;;;;;9.82;52.35;102388.22;6274244;22;45283;-70
2023/04/03 09:01:00;;;;;;;;;8.75;8.00;;;;;9.79;50.28;102381.88;6271946;22;45328;-71
2023/04/03 09:03:30;;;;;;;;;9.00;7.75;;;;;9.79;49.52;102384.50;6273814;22;45395;-70
2023/04/03 09:06:02;;;;;;;;;6.00;6.00;;;;;9.69;53.12;102364.66;6273414;22;45360;-71
2023/04/03 09:08:43;;;;;;;;;7.75;7.75;;;;;9.77;50.99;102383.50;6273674;22;45414;-70
2023/04/03 09:11:26;;;;;;;;;11.00;9.75;;;;;9.78;51.46;102386.25;6273820;22;45287;-71
2023/04/03 09:14:02;;;;;;;;;12.00;11.00;;;;;9.63;51.65;102361.66;6273570;22;45441;-70
2023/04/03 09:16:59;;;;;;;;;16.00;11.75;;;;;9.78;51.04;102382.72;6274075;22;45290;-71
2023/04/03 09:19:24;;;;;;;;;10.25;10.00;;;;;9.78;50.76;102385.34;6273527;22;45264;-71
2023/04/03 09:21:50;;;;;;;;;9.75;9.00;;;;;9.72;51.97;102379.72;6270962;22;45320;-70
2023/04/03 09:24:17;;;;;;;;;9.25;9.00;;;;;9.61;51.95;102371.25;6273174;22;45657;-71
2023/04/03 09:26:51;;;;;;;;;10.00;10.00;;;;;9.37;49.91;102366.44;6273944;22;45600;-71
2023/04/03 09:29:21;;;;;;;;;10.00;8.50;;;;;9.55;51.51;102374.47;6273516;22;45433;-71
2023/04/03 09:31:49;;;;;;;;;25.75;24.25;;;;;9.48;51.19;102385.50;6273906;22;45220;-70
2023/04/03 09:34:23;;;;;;;;;10.75;8.00;;;;;9.52;52.15;102386.56;6273662;22;45428;-71
2023/04/03 09:36:53;;;;;;;;;9.75;9.50;;;;;9.52;50.75;102397.13;6273233;22;45479;-71
2023/04/03 09:39:21;;;;;;;;;10.00;9.00;;;;;9.56;49.77;102393.84;6273038;22;45399;-71
2023/04/03 09:42:05;;;;;;;;;9.00;8.25;;;;;9.88;50.63;102397.28;6273494;22;45235;-71
2023/04/03 09:44:33;;;;;;;;;10.00;9.00;;;;;10.34;50.74;102389.16;6273912;22;45216;-69
2023/04/03 09:47:17;;;;;;;;;8.75;7.75;;;;;10.75;49.53;102386.84;6273681;22;46249;-70
2023/04/03 09:49:42;;;;;;;;;9.50;9.00;;;;;11.39;48.73;102377.50;6273643;22;45305;-70
2023/04/03 09:52:24;;;;;;;;;6.00;6.00;;;;;11.79;49.17;102366.03;6273812;22;45220;-69
2023/04/03 09:54:50;;;;;;;;;8.25;6.00;;;;;12.08;48.71;102362.97;6273772;22;45482;-69
2023/04/03 09:57:15;;;;;;;;;7.00;7.00;;;;;12.29;48.69;102370.03;6273264;22;45299;-70
2023/04/03 09:59:45;;;;;;;;;7.50;7.50;;;;;12.40;47.85;102373.13;6274084;22;45243;-71
2023/04/03 10:02:28;;;;;;;;;11.25;8.75;;;;;12.45;47.83;102376.91;6272921;22;45522;-70
2023/04/03 10:04:55;;;;;;;;;8.75;8.75;;;;;12.47;47.24;102348.69;6273583;22;45358;-71
2023/04/03 10:07:28;;;;;;;;;7.25;5.25;;;;;12.80;47.73;102367.75;6296629;22;46615;-70
2023/04/03 10:10:20;;;;;;;;;7.75;6.00;;;;;13.09;46.42;102355.63;6272185;22;45527;-71
2023/04/03 10:12:46;;;;;;;;;8.50;8.00;;;;;13.38;43.80;102350.53;6275532;22;45224;-70
2023/04/03 10:15:18;;;;;;;;;8.00;7.50;;;;;13.70;43.74;102351.75;6276235;22;45289;-72
2023/04/03 10:18:14;;;;;;;;;8.00;7.00;;;;;14.08;43.78;102347.78;6275543;22;45200;-71
2023/04/03 10:20:44;;;;;;;;;7.00;6.75;;;;;14.26;39.71;102349.28;6276821;22;45367;-71
2023/04/03 10:23:21;;;;;;;;;9.00;7.50;;;;;14.59;44.75;102344.22;6274473;22;45429;-70
2023/04/03 10:25:52;;;;;;;;;8.33;6.33;;;;;14.92;42.79;102341.72;6277607;22;45262;-71
2023/04/03 10:28:25;;;;;;;;;9.00;9.00;;;;;15.16;43.38;102336.25;6277588;22;45152;-72
2023/04/03 10:31:18;;;;;;;;;5.00;5.00;;;;;15.26;40.29;102328.53;6276704;22;45396;-71
2023/04/03 10:34:02;;;;;;;;;9.33;7.33;;;;;15.41;40.28;102329.88;6277758;22;45295;-71
2023/04/03 10:36:52;;;;;;;;;8.00;8.00;;;;;15.70;41.04;102328.94;6275031;22;46212;-71
2023/04/03 10:39:31;;;;;;;;;33.75;30.00;;;;;15.89;39.75;102324.16;6277207;22;45356;-71
2023/04/03 10:42:03;;;;;;;;;7.00;6.67;;;;;16.05;41.72;102313.91;6277806;22;44725;-70
2023/04/03 10:44:43;;;;;;;;;11.00;8.00;;;;;16.22;35.85;102325.00;6275690;22;45276;-71
2023/04/03 10:47:22;;;;;;;;;8.00;8.00;;;;;16.33;40.25;102320.84;6277551;22;45501;-71
2023/04/03 10:50:20;;;;;;;;;8.67;7.33;;;;;16.01;35.88;102310.22;6277380;22;45291;-71
2023/04/03 10:52:45;;;;;;;;;9.00;8.00;;;;;16.27;35.59;102308.25;6277349;22;45259;-71
2023/04/03 10:55:26;;;;;;;;;8.67;6.00;;;;;16.52;40.15;102312.44;6277959;22;45204;-71
2023/04/03 10:57:56;;;;;;;;;6.00;6.00;;;;;16.60;38.67;102312.59;6275363;22;45605;-71
2023/04/03 11:00:45;;;;;;;;;6.33;6.33;;;;;16.60;37.09;102307.25;6277131;22;45308;-72
2023/04/03 11:03:32;;;;;;;;;7.67;5.33;;;;;16.72;37.91;102295.94;6277436;22;45171;-71
2023/04/03 11:06:01;;;;;;;;;2.00;2.00;;;;;16.64;36.46;102297.56;6278074;22;45275;-71
2023/04/03 11:08:35;;;;;;;;;8.33;8.33;;;;;16.52;35.29;102299.06;6275569;22;45699;-71
2023/04/03 11:11:06;;;;;;;;;7.33;7.33;;;;;16.53;36.15;102300.88;6277195;22;45258;-71
2023/04/03 11:13:42;;;;;;;;;8.00;8.00;;;;;16.71;37.78;102303.06;6277064;22;45237;-71
2023/04/03 11:16:08;;;;;;;;;5.33;5.33;;;;;16.80;35.84;102302.41;6275699;22;45288;-71
2023/04/03 11:18:46;;;;;;;;;5.00;5.00;;;;;16.73;35.61;102298.66;6277344;22;45234;-71
2023/04/03 11:21:42;;;;;;;;;5.00;5.00;;;;;16.81;37.19;102287.31;6276957;22;45216;-70
2023/04/03 11:24:20;;;;;;;;;8.33;5.67;;;;;16.76;34.21;102293.41;6276774;22;45384;-70